Ide Min — PC8366 — position and weather

sailwx.info

Track history (hours):
 
Tides and Currents Weather Stations Pressure Air Temp Water Temp Dewpoint Dewpoint Depression Visibility Wind Speed Wind Dir Waves Ship Positions

Ide Min (Netherlands)

Ship's website: http://www.idemin.nl/english/english.html

Last reported at 2017-Sep-21 16:26 UTC. Time now 2017-Sep-24 06:59 UTC.
Position N 54°51' E 009°30'.

Length 40 m; draft 2.4 m.

MMSI: 244537000.

Date/timePositionNaut miles runAvg speedWind from/ knotsBaromVisibWave heightAir tempDewpointWater temp
2017-Sep-21 16:26N 54°51' E 009°30'9 3.8
2017-Sep-21 13:56N 54°50' E 009°46'3 5.8
2017-Sep-21 13:30N 54°50' E 009°51'3 5.5
2017-Sep-21 13:00N 54°49' E 009°55'3 5.9
2017-Sep-21 12:30N 54°47' E 009°59'5 5.2
2017-Sep-21 11:34N 54°42' E 010°03'0 2.0
2017-Sep-21 11:26N 54°42' E 010°03'2 2.1
2017-Sep-21 10:42N 54°40' E 010°03'1 1.6
2017-Sep-21 10:15N 54°40' E 010°03'0 0.9
2017-Sep-21 10:00N 54°39' E 010°03'1 1.2
2017-Sep-21 09:20N 54°39' E 010°03'1 1.5
2017-Sep-21 08:56N 54°38' E 010°03'1 2.5
2017-Sep-21 08:30N 54°37' E 010°03'1 0.0
2017-Sep-20 11:45N 54°37' E 010°04'1 4.8
2017-Sep-20 11:30N 54°38' E 010°03'2 3.8
2017-Sep-20 10:51N 54°40' E 010°02'2 4.6
2017-Sep-20 10:30N 54°41' E 009°60'2 3.4
2017-Sep-20 10:00N 54°41' E 009°57'1 2.2
2017-Sep-20 09:30N 54°39' E 009°56'0 0.0
2017-Sep-20 09:00N 54°39' E 009°56'0 0.0
2017-Sep-20 08:30N 54°39' E 009°56'0 0.0
2017-Sep-20 08:00N 54°39' E 009°56'0 0.0
2017-Sep-20 07:30N 54°39' E 009°56'0 0.0
2017-Sep-20 07:00N 54°39' E 009°56'0 0.0
2017-Sep-20 06:30N 54°39' E 009°56'0 0.0
2017-Sep-20 06:00N 54°39' E 009°56'0 0.0
2017-Sep-20 05:24N 54°39' E 009°56'0 0.0
2017-Sep-20 05:00N 54°39' E 009°56'0 0.0
2017-Sep-20 04:30N 54°39' E 009°56'0 0.0
2017-Sep-20 03:54N 54°39' E 009°56'0 0.0
2017-Sep-20 03:30N 54°39' E 009°56'0 0.0
2017-Sep-20 02:54N 54°39' E 009°56'0 0.0
2017-Sep-20 02:30N 54°39' E 009°56'0 0.0
2017-Sep-20 01:24N 54°39' E 009°56'0 0.0
2017-Sep-20 00:54N 54°39' E 009°56'0 0.0
2017-Sep-20 00:30N 54°39' E 009°56'0 0.0
2017-Sep-20 00:00N 54°39' E 009°56'0 0.0
2017-Sep-19 23:30N 54°39' E 009°56'0 0.0
2017-Sep-19 23:00N 54°39' E 009°56'0 0.0
2017-Sep-19 22:30N 54°39' E 009°56'0 0.0
2017-Sep-19 22:00N 54°39' E 009°56'0 0.0
2017-Sep-19 21:24N 54°39' E 009°56'0 0.0
2017-Sep-19 21:00N 54°39' E 009°56'0 0.0
2017-Sep-19 20:30N 54°39' E 009°56'0 0.0
2017-Sep-19 20:00N 54°39' E 009°56'0 0.0
2017-Sep-19 19:30N 54°39' E 009°56'0 0.0
2017-Sep-19 19:00N 54°39' E 009°56'0 0.0
2017-Sep-19 18:30N 54°39' E 009°56'0 0.0
2017-Sep-19 18:00N 54°39' E 009°56'0 0.0
2017-Sep-19 17:30N 54°39' E 009°56'0 0.0
2017-Sep-19 17:00N 54°39' E 009°56'0 0.0
2017-Sep-19 16:30N 54°39' E 009°56'0 0.0
2017-Sep-19 16:00N 54°39' E 009°56'0 0.0
2017-Sep-19 15:24N 54°39' E 009°56'0 0.0
2017-Sep-19 15:00N 54°39' E 009°56'0 0.0
2017-Sep-19 14:30N 54°39' E 009°56'0 0.0
2017-Sep-19 14:00N 54°40' E 009°56'1 2.0
2017-Sep-19 13:30N 54°40' E 009°57'2 3.9
2017-Sep-19 13:00N 54°41' E 010°00'2 3.2
2017-Sep-19 12:29N 54°40' E 010°03'2 3.0
2017-Sep-19 11:59N 54°38' E 010°03'9 1.1
2017-Sep-19 03:31N 54°45' E 009°52'  
2017-Sep-15 07:54N 54°37' E 010°03'3 4.0
2017-Sep-15 07:05N 54°40' E 010°02'0 0.0
2017-Sep-14 15:59N 54°40' E 010°02'1 1.0
2017-Sep-14 15:26N 54°40' E 010°03'  
Track history (hours):
 
Tides and Currents Weather Stations Pressure Air Temp Water Temp Dewpoint Dewpoint Depression Visibility Wind Speed Wind Dir Waves Ship Positions

Ide Min (Netherlands)

Ship's website: http://www.idemin.nl/english/english.html

Last reported at 2017-Sep-21 16:26 UTC. Time now 2017-Sep-24 06:59 UTC.
Position N 54°51' E 009°30'.

Length 40 m; draft 2.4 m.

MMSI: 244537000.

Date/timePositionNaut miles runAvg speedWind from/ knotsBaromVisibWave heightAir tempDewpointWater temp
2017-Sep-21 16:26N 54°51' E 009°30'9 3.8
2017-Sep-21 13:56N 54°50' E 009°46'3 5.8
2017-Sep-21 13:30N 54°50' E 009°51'3 5.5
2017-Sep-21 13:00N 54°49' E 009°55'3 5.9
2017-Sep-21 12:30N 54°47' E 009°59'5 5.2
2017-Sep-21 11:34N 54°42' E 010°03'0 2.0
2017-Sep-21 11:26N 54°42' E 010°03'2 2.1
2017-Sep-21 10:42N 54°40' E 010°03'1 1.6
2017-Sep-21 10:15N 54°40' E 010°03'0 0.9
2017-Sep-21 10:00N 54°39' E 010°03'1 1.2
2017-Sep-21 09:20N 54°39' E 010°03'1 1.5
2017-Sep-21 08:56N 54°38' E 010°03'1 2.5
2017-Sep-21 08:30N 54°37' E 010°03'1 0.0
2017-Sep-20 11:45N 54°37' E 010°04'1 4.8
2017-Sep-20 11:30N 54°38' E 010°03'2 3.8
2017-Sep-20 10:51N 54°40' E 010°02'2 4.6
2017-Sep-20 10:30N 54°41' E 009°60'2 3.4
2017-Sep-20 10:00N 54°41' E 009°57'1 2.2
2017-Sep-20 09:30N 54°39' E 009°56'0 0.0
2017-Sep-20 09:00N 54°39' E 009°56'0 0.0
2017-Sep-20 08:30N 54°39' E 009°56'0 0.0
2017-Sep-20 08:00N 54°39' E 009°56'0 0.0
2017-Sep-20 07:30N 54°39' E 009°56'0 0.0
2017-Sep-20 07:00N 54°39' E 009°56'0 0.0
2017-Sep-20 06:30N 54°39' E 009°56'0 0.0
2017-Sep-20 06:00N 54°39' E 009°56'0 0.0
2017-Sep-20 05:24N 54°39' E 009°56'0 0.0
2017-Sep-20 05:00N 54°39' E 009°56'0 0.0
2017-Sep-20 04:30N 54°39' E 009°56'0 0.0
2017-Sep-20 03:54N 54°39' E 009°56'0 0.0
2017-Sep-20 03:30N 54°39' E 009°56'0 0.0
2017-Sep-20 02:54N 54°39' E 009°56'0 0.0
2017-Sep-20 02:30N 54°39' E 009°56'0 0.0
2017-Sep-20 01:24N 54°39' E 009°56'0 0.0
2017-Sep-20 00:54N 54°39' E 009°56'0 0.0
2017-Sep-20 00:30N 54°39' E 009°56'0 0.0
2017-Sep-20 00:00N 54°39' E 009°56'0 0.0
2017-Sep-19 23:30N 54°39' E 009°56'0 0.0
2017-Sep-19 23:00N 54°39' E 009°56'0 0.0
2017-Sep-19 22:30N 54°39' E 009°56'0 0.0
2017-Sep-19 22:00N 54°39' E 009°56'0 0.0
2017-Sep-19 21:24N 54°39' E 009°56'0 0.0
2017-Sep-19 21:00N 54°39' E 009°56'0 0.0
2017-Sep-19 20:30N 54°39' E 009°56'0 0.0
2017-Sep-19 20:00N 54°39' E 009°56'0 0.0
2017-Sep-19 19:30N 54°39' E 009°56'0 0.0
2017-Sep-19 19:00N 54°39' E 009°56'0 0.0
2017-Sep-19 18:30N 54°39' E 009°56'0 0.0
2017-Sep-19 18:00N 54°39' E 009°56'0 0.0
2017-Sep-19 17:30N 54°39' E 009°56'0 0.0
2017-Sep-19 17:00N 54°39' E 009°56'0 0.0
2017-Sep-19 16:30N 54°39' E 009°56'0 0.0
2017-Sep-19 16:00N 54°39' E 009°56'0 0.0
2017-Sep-19 15:24N 54°39' E 009°56'0 0.0
2017-Sep-19 15:00N 54°39' E 009°56'0 0.0
2017-Sep-19 14:30N 54°39' E 009°56'0 0.0
2017-Sep-19 14:00N 54°40' E 009°56'1 2.0
2017-Sep-19 13:30N 54°40' E 009°57'2 3.9
2017-Sep-19 13:00N 54°41' E 010°00'2 3.2
2017-Sep-19 12:29N 54°40' E 010°03'2 3.0
2017-Sep-19 11:59N 54°38' E 010°03'9 1.1
2017-Sep-19 03:31N 54°45' E 009°52'  
2017-Sep-15 07:54N 54°37' E 010°03'3 4.0
2017-Sep-15 07:05N 54°40' E 010°02'0 0.0
2017-Sep-14 15:59N 54°40' E 010°02'1 1.0
2017-Sep-14 15:26N 54°40' E 010°03'  

Dump ship's entire track history